Kelibia, Tunisia
Current Conditions -  °F | °C
As of 8:30 AM on Friday 24 Oct 2014 (Local Time) from DTTA Reporting Station
Few Clouds Few Clouds  
Wind Chill: 70°   Ceiling: Unl
Heat Index: 70°   Visibility: 5mi
Dew Point: 55°   Wind: 10mph
Humidity: 60%   Direction: 280°W
Pressure: 29.91"   Gusts: NA
Location:  36.85°N, 11.09°E
Report Text: DTTA 240730Z 28009KT 8000 FEW026 21/13 Q1013 NOSIG
Loading
Personal Weather Stations






























Interactive Weather Map
Tropical Storm Tracking
New forecast layout! Learn more

10-Day Weather Forecast

Advertisements
Track Severe Weather on mobile